Time;durP1;ratioP1;P1;durP2;ratioP2;P2;SDS_P1;SDS_P2;PMS_P1;PMS_P2;Temp;Humidity;BMP_temperature;BMP_pressure;BME280_temperature;BME280_humidity;BME280_pressure;Samples;Min_cycle;Max_cycle;Signal;HPM_P1;HPM_P2
2022/04/19 00:01:17;;;;;;;8.27;4.82;;;11.40;71.00;;;;;;5110565;27;37456;-55
2022/04/19 00:03:45;;;;;;;9.43;4.57;;;11.40;70.60;;;;;;5114779;27;36480;-54
2022/04/19 00:06:13;;;;;;;9.73;5.20;;;11.30;70.90;;;;;;5112415;27;37239;-55
2022/04/19 00:08:40;;;;;;;9.50;5.40;;;11.20;71.00;;;;;;5111248;27;37138;-55
2022/04/19 00:11:08;;;;;;;8.55;5.05;;;11.30;70.20;;;;;;5111151;27;37709;-55
2022/04/19 00:13:35;;;;;;;11.30;5.38;;;11.30;70.20;;;;;;5112909;27;35229;-55
2022/04/19 00:16:04;;;;;;;9.43;5.20;;;11.30;69.60;;;;;;5111540;27;37711;-54
2022/04/19 00:18:32;;;;;;;8.10;5.18;;;11.30;70.10;;;;;;5113143;27;36957;-55
2022/04/19 00:21:00;;;;;;;8.18;4.88;;;11.30;70.00;;;;;;5111405;27;37928;-54
2022/04/19 00:23:28;;;;;;;8.85;4.90;;;11.40;69.40;;;;;;5109759;27;36720;-53
2022/04/19 00:25:56;;;;;;;10.32;6.00;;;11.40;68.60;;;;;;5112571;27;37333;-54
2022/04/19 00:28:23;;;;;;;8.75;5.30;;;11.50;68.30;;;;;;5111959;27;36842;-53
2022/04/19 00:30:50;;;;;;;9.95;5.80;;;11.50;67.50;;;;;;5112863;27;37086;-54
2022/04/19 00:33:19;;;;;;;9.80;5.30;;;11.50;67.70;;;;;;5113988;27;37240;-54
2022/04/19 00:35:46;;;;;;;12.00;5.80;;;11.60;66.80;;;;;;5113174;27;38672;-54
2022/04/19 00:38:14;;;;;;;10.65;6.60;;;11.50;66.40;;;;;;5112356;27;37558;-62
2022/04/19 00:40:41;;;;;;;9.38;5.10;;;11.50;66.10;;;;;;5110999;27;38271;-61
2022/04/19 00:43:11;;;;;;;10.50;5.90;;;11.50;66.20;;;;;;5113122;27;36450;-61
2022/04/19 00:45:38;;;;;;;8.18;5.18;;;11.50;66.60;;;;;;5110017;27;38262;-53
2022/04/19 00:48:07;;;;;;;10.50;5.55;;;11.60;66.40;;;;;;5112338;27;37223;-54
2022/04/19 00:50:35;;;;;;;9.48;5.57;;;11.50;66.60;;;;;;5112602;27;37041;-54
2022/04/19 00:53:03;;;;;;;9.13;5.13;;;11.60;66.80;;;;;;5112402;27;36733;-53
2022/04/19 00:55:32;;;;;;;9.60;5.47;;;11.60;66.40;;;;;;5111355;27;39270;-53
2022/04/19 00:57:59;;;;;;;11.70;5.95;;;11.70;66.70;;;;;;5109859;27;36060;-55
2022/04/19 01:00:26;;;;;;;9.85;5.60;;;11.80;65.90;;;;;;5111509;27;37302;-54
2022/04/19 01:02:54;;;;;;;13.02;5.97;;;11.80;66.00;;;;;;5112399;27;37108;-61
2022/04/19 01:05:22;;;;;;;12.50;6.32;;;11.80;65.90;;;;;;5111234;27;37526;-61
2022/04/19 01:07:51;;;;;;;12.25;6.30;;;11.70;65.40;;;;;;5111315;27;36869;-61
2022/04/19 01:10:18;;;;;;;11.43;6.25;;;11.70;65.40;;;;;;5111244;27;38428;-61
2022/04/19 01:15:31;;;;;;;10.68;5.63;;;11.60;64.80;;;;;;5111787;27;37590;-61
2022/04/19 01:18:02;;;;;;;12.43;6.03;;;11.70;64.70;;;;;;5113532;27;37668;-62
2022/04/19 01:20:29;;;;;;;10.93;6.00;;;11.60;64.80;;;;;;5112413;27;36881;-61
2022/04/19 01:22:58;;;;;;;12.57;6.68;;;11.50;65.00;;;;;;5112954;27;35502;-61
2022/04/19 01:25:25;;;;;;;10.43;6.00;;;11.40;64.80;;;;;;5111703;27;37424;-61
2022/04/19 01:27:53;;;;;;;13.65;5.90;;;11.40;64.90;;;;;;5111067;27;36169;-61
2022/04/19 01:30:20;;;;;;;11.90;6.40;;;11.30;65.30;;;;;;5109873;27;38859;-61
2022/04/19 01:32:48;;;;;;;10.45;5.93;;;11.20;66.30;;;;;;5112658;27;37012;-61
2022/04/19 01:35:18;;;;;;;10.60;6.55;;;11.10;67.60;;;;;;5113080;27;36324;-61
2022/04/19 01:37:47;;;;;;;10.48;5.55;;;11.10;69.00;;;;;;5111484;27;36125;-61
2022/04/19 01:40:20;;;;;;;11.00;5.80;;;11.10;70.20;;;;;;5111624;27;36993;-61
2022/04/19 01:42:49;;;;;;;9.75;5.65;;;11.10;70.10;;;;;;5113515;27;35340;-61
2022/04/19 01:45:18;;;;;;;10.77;5.70;;;11.10;70.00;;;;;;5111144;27;38023;-61
2022/04/19 01:47:45;;;;;;;11.95;6.47;;;11.00;69.80;;;;;;5111423;27;37775;-61
2022/04/19 01:50:14;;;;;;;12.15;6.38;;;10.90;71.00;;;;;;5110544;27;37083;-61
2022/04/19 01:52:42;;;;;;;8.90;5.57;;;10.80;72.50;;;;;;5111911;27;35309;-61
2022/04/19 01:55:13;;;;;;;8.30;5.28;;;10.80;73.40;;;;;;5111856;27;36330;-61
2022/04/19 01:57:43;;;;;;;12.77;6.22;;;10.70;74.30;;;;;;5108357;27;37611;-61
2022/04/19 02:00:12;;;;;;;10.80;5.75;;;10.60;75.20;;;;;;5110769;27;37048;-61
2022/04/19 02:02:40;;;;;;;10.18;5.53;;;10.60;75.70;;;;;;5110831;27;40171;-61
2022/04/19 02:05:08;;;;;;;10.70;5.63;;;10.50;76.10;;;;;;5111560;27;38280;-61
2022/04/19 02:07:39;;;;;;;10.20;6.13;;;10.50;76.40;;;;;;5112171;27;38031;-61
2022/04/19 02:10:08;;;;;;;10.70;5.93;;;10.40;77.00;;;;;;5109492;27;35951;-61
2022/04/19 02:12:36;;;;;;;9.90;5.47;;;10.40;77.50;;;;;;5112011;27;37245;-61
2022/04/19 02:15:06;;;;;;;9.57;5.68;;;10.40;78.00;;;;;;5110572;27;36497;-61
2022/04/19 02:17:33;;;;;;;9.25;5.63;;;10.20;78.80;;;;;;5111379;27;37944;-53
2022/04/19 02:20:02;;;;;;;11.70;5.45;;;10.20;79.20;;;;;;5110642;27;37870;-54
2022/04/19 02:22:29;;;;;;;8.80;5.38;;;10.10;79.90;;;;;;5110613;27;37378;-53
2022/04/19 02:24:58;;;;;;;9.00;5.43;;;10.00;80.30;;;;;;5110286;27;37749;-55
2022/04/19 02:27:25;;;;;;;11.82;6.13;;;9.90;80.70;;;;;;5110503;27;36874;-53
2022/04/19 02:30:03;;;;;;;10.77;5.82;;;9.90;81.40;;;;;;5111384;27;36870;-52
2022/04/19 02:32:33;;;;;;;11.40;6.22;;;9.80;82.20;;;;;;5111426;27;37880;-52
2022/04/19 02:35:01;;;;;;;9.55;5.88;;;9.70;82.70;;;;;;5108923;27;36249;-53
2022/04/19 02:37:29;;;;;;;9.73;5.63;;;9.70;82.90;;;;;;5110380;27;37768;-54
2022/04/19 02:39:57;;;;;;;10.43;6.28;;;9.60;83.30;;;;;;5107779;27;39288;-51
2022/04/19 02:42:24;;;;;;;11.95;7.22;;;9.50;83.80;;;;;;5113268;27;36759;-53
2022/04/19 02:44:52;;;;;;;11.57;6.28;;;9.50;84.20;;;;;;5110613;27;36372;-52
2022/04/19 02:47:19;;;;;;;10.90;6.75;;;9.50;84.50;;;;;;5112563;27;37437;-54
2022/04/19 02:49:49;;;;;;;12.57;7.18;;;9.20;84.10;;;;;;5114341;27;37907;-54
2022/04/19 02:52:17;;;;;;;12.77;6.57;;;9.30;84.50;;;;;;5114390;27;37033;-53
2022/04/19 02:54:44;;;;;;;10.70;6.53;;;9.30;84.60;;;;;;5112464;27;38864;-54
2022/04/19 02:57:12;;;;;;;9.77;6.15;;;9.20;85.40;;;;;;5111115;27;37911;-55
2022/04/19 02:59:42;;;;;;;10.93;6.50;;;9.20;85.90;;;;;;5113528;27;36845;-53
2022/04/19 03:02:10;;;;;;;10.93;6.28;;;9.20;88.70;;;;;;5114016;27;35870;-53
2022/04/19 03:04:37;;;;;;;11.52;6.20;;;9.10;90.40;;;;;;5112547;27;37463;-53
2022/04/19 03:07:06;;;;;;;11.68;7.20;;;9.10;90.40;;;;;;5110558;27;37674;-60
2022/04/19 03:09:34;;;;;;;12.05;6.68;;;9.20;90.30;;;;;;5112038;27;37474;-61
2022/04/19 03:12:01;;;;;;;10.82;6.47;;;9.30;89.50;;;;;;5112796;27;36999;-61
2022/04/19 03:14:29;;;;;;;12.07;6.57;;;9.40;88.40;;;;;;5112701;27;37682;-60
2022/04/19 03:16:56;;;;;;;10.75;6.55;;;9.40;87.30;;;;;;5112817;27;36286;-60
2022/04/19 03:19:24;;;;;;;13.25;7.05;;;9.50;86.60;;;;;;5111682;27;38670;-60
2022/04/19 03:21:51;;;;;;;12.05;6.50;;;9.60;86.40;;;;;;5114644;27;36145;-60
2022/04/19 03:29:52;;;;;;;10.07;5.90;;;9.80;84.10;;;;;;5114599;27;38255;-60
2022/04/19 03:32:20;;;;;;;11.25;6.53;;;9.80;83.60;;;;;;5116630;27;39525;-60
2022/04/19 03:34:47;;;;;;;11.10;6.32;;;9.90;83.30;;;;;;5114269;27;37890;-53
2022/04/19 03:37:15;;;;;;;10.80;5.82;;;9.90;82.90;;;;;;5114518;27;36060;-54
2022/04/19 03:39:44;;;;;;;11.60;6.18;;;9.90;82.50;;;;;;5112546;27;37021;-52
2022/04/19 03:42:11;;;;;;;13.13;6.38;;;10.00;82.30;;;;;;5113247;27;37900;-52
2022/04/19 03:44:39;;;;;;;9.35;5.88;;;10.00;82.50;;;;;;5113037;27;37357;-52
2022/04/19 03:47:09;;;;;;;12.10;6.05;;;9.90;82.10;;;;;;5113420;27;37586;-53
2022/04/19 03:49:37;;;;;;;10.65;6.10;;;10.00;82.00;;;;;;5112898;27;36243;-53
2022/04/19 03:52:05;;;;;;;10.60;6.05;;;9.90;81.50;;;;;;5112606;27;36682;-52
2022/04/19 03:54:34;;;;;;;11.70;6.95;;;10.00;81.10;;;;;;5111981;27;37076;-52
2022/04/19 03:57:05;;;;;;;9.73;5.95;;;9.90;80.50;;;;;;5115123;27;37827;-53
2022/04/19 03:59:32;;;;;;;12.02;6.07;;;9.90;80.40;;;;;;5112746;27;39943;-50
2022/04/19 04:02:00;;;;;;;12.77;6.20;;;9.90;80.20;;;;;;5113294;27;36666;-53
2022/04/19 04:04:30;;;;;;;13.90;6.45;;;9.90;80.20;;;;;;5112701;27;36362;-53
2022/04/19 04:06:58;;;;;;;9.73;5.82;;;9.80;79.90;;;;;;5111733;27;38229;-52
2022/04/19 04:09:26;;;;;;;10.23;5.80;;;9.80;80.60;;;;;;5112294;27;38337;-53
2022/04/19 04:11:53;;;;;;;10.48;6.28;;;9.70;81.00;;;;;;5114425;27;35350;-52
2022/04/19 04:14:22;;;;;;;9.90;5.85;;;9.70;81.00;;;;;;5108533;27;38421;-52
2022/04/19 04:16:50;;;;;;;10.48;5.72;;;9.70;82.00;;;;;;5109636;27;37809;-53
2022/04/19 04:19:17;;;;;;;9.55;6.03;;;9.70;81.60;;;;;;5111360;27;38599;-52
2022/04/19 04:21:45;;;;;;;13.70;7.38;;;9.60;81.60;;;;;;5111035;27;37327;-53
2022/04/19 04:24:12;;;;;;;11.45;6.22;;;9.60;81.90;;;;;;5113076;27;36297;-54
2022/04/19 04:26:40;;;;;;;11.73;6.40;;;9.60;82.20;;;;;;5113198;27;37728;-52
2022/04/19 04:29:07;;;;;;;9.75;5.80;;;9.60;83.00;;;;;;5112094;27;38602;-54
2022/04/19 04:31:36;;;;;;;11.60;5.97;;;9.70;83.50;;;;;;5111888;27;38095;-53
2022/04/19 04:34:03;;;;;;;12.40;6.45;;;9.60;84.10;;;;;;5111462;27;36391;-52
2022/04/19 04:36:30;;;;;;;10.32;5.50;;;9.60;84.10;;;;;;5109449;27;38545;-53
2022/04/19 04:38:58;;;;;;;12.27;7.18;;;9.60;84.90;;;;;;5111684;27;38258;-52
2022/04/19 04:41:25;;;;;;;9.90;5.78;;;9.60;84.80;;;;;;5114114;27;36445;-53
2022/04/19 04:43:53;;;;;;;12.25;6.47;;;9.50;84.80;;;;;;5111771;27;37731;-51
2022/04/19 04:51:51;;;;;;;13.68;6.22;;;9.60;84.80;;;;;;5112577;27;37685;-53
2022/04/19 04:54:18;;;;;;;14.23;6.85;;;9.60;84.20;;;;;;5113216;27;36263;-53
2022/04/19 04:56:46;;;;;;;16.38;6.60;;;9.60;84.60;;;;;;5112142;27;37851;-52
2022/04/19 04:59:13;;;;;;;11.30;6.20;;;9.60;84.10;;;;;;5112837;27;37910;-52
2022/04/19 05:01:41;;;;;;;12.93;6.25;;;9.70;84.10;;;;;;5110107;27;36392;-52
2022/04/19 05:04:10;;;;;;;15.00;6.53;;;9.70;83.80;;;;;;5109355;27;38046;-52
2022/04/19 05:06:37;;;;;;;11.05;6.88;;;9.80;84.00;;;;;;5110045;27;38718;-53
2022/04/19 05:09:08;;;;;;;10.95;5.85;;;9.80;84.10;;;;;;5111627;27;38384;-53
2022/04/19 05:11:36;;;;;;;11.98;6.20;;;9.90;84.20;;;;;;5109521;27;35199;-52
2022/04/19 05:14:03;;;;;;;12.52;6.43;;;10.10;84.30;;;;;;5111749;27;37281;-52
2022/04/19 05:16:31;;;;;;;11.85;6.88;;;10.20;83.80;;;;;;5110194;27;37631;-60
2022/04/19 05:18:58;;;;;;;10.32;6.03;;;10.40;82.70;;;;;;5110932;27;38395;-61
2022/04/19 05:21:27;;;;;;;14.02;6.85;;;10.70;81.50;;;;;;5110452;27;39586;-60
2022/04/19 05:23:55;;;;;;;10.82;5.95;;;11.00;80.90;;;;;;5110047;27;38466;-60
2022/04/19 05:26:23;;;;;;;15.88;7.35;;;11.40;79.10;;;;;;5109076;27;38114;-52
2022/04/19 05:28:50;;;;;;;12.07;6.40;;;11.70;77.90;;;;;;5109331;27;38537;-53
2022/04/19 05:31:18;;;;;;;14.07;6.95;;;11.90;76.80;;;;;;5107823;27;36717;-54
2022/04/19 05:33:45;;;;;;;9.98;6.35;;;12.10;76.40;;;;;;5109157;27;37227;-54
2022/04/19 05:36:13;;;;;;;13.73;7.22;;;12.30;75.00;;;;;;5109654;27;37736;-54
2022/04/19 05:38:42;;;;;;;10.93;6.20;;;12.50;73.80;;;;;;5108903;27;38837;-53
2022/04/19 05:41:09;;;;;;;12.60;7.20;;;12.60;73.00;;;;;;5109504;27;36542;-54
2022/04/19 05:43:37;;;;;;;14.07;7.00;;;12.70;72.80;;;;;;5110752;27;36471;-54
2022/04/19 05:46:04;;;;;;;9.50;5.97;;;12.80;73.20;;;;;;5107676;27;40267;-54
2022/04/19 05:48:31;;;;;;;10.98;6.85;;;12.90;73.00;;;;;;5110306;27;38285;-53
2022/04/19 05:50:59;;;;;;;10.50;6.88;;;13.00;72.50;;;;;;5108683;27;36454;-54
2022/04/19 05:53:26;;;;;;;11.98;6.47;;;13.20;72.70;;;;;;5109874;27;38157;-54
2022/04/19 05:55:55;;;;;;;11.02;6.25;;;13.30;72.80;;;;;;5108927;27;37713;-52
2022/04/19 05:58:22;;;;;;;12.18;6.40;;;13.40;73.30;;;;;;5111668;27;37881;-60
2022/04/19 06:00:49;;;;;;;15.57;7.75;;;13.60;72.90;;;;;;5110178;27;35346;-60
2022/04/19 06:06:05;;;;;;;11.32;6.63;;;14.00;72.50;;;;;;5109844;27;39876;-61
2022/04/19 06:08:32;;;;;;;15.07;7.22;;;14.20;70.90;;;;;;5110959;27;37369;-60
2022/04/19 06:11:01;;;;;;;12.80;8.10;;;14.30;69.60;;;;;;5109294;27;37616;-60
2022/04/19 06:13:28;;;;;;;11.30;6.75;;;14.50;69.20;;;;;;5112240;27;38689;-60
2022/04/19 06:15:56;;;;;;;12.10;6.65;;;14.70;68.80;;;;;;5109980;27;36439;-61
2022/04/19 06:18:23;;;;;;;17.23;7.60;;;14.80;67.60;;;;;;5110118;27;38886;-60
2022/04/19 06:20:53;;;;;;;14.48;6.88;;;14.90;67.20;;;;;;5111904;27;36397;-60
2022/04/19 06:23:20;;;;;;;12.73;6.50;;;15.00;67.30;;;;;;5111411;27;38979;-60
2022/04/19 06:25:48;;;;;;;13.18;7.28;;;15.10;65.50;;;;;;5109715;27;38367;-60
2022/04/19 06:28:18;;;;;;;14.73;7.78;;;15.20;66.20;;;;;;5110796;27;36216;-53
2022/04/19 06:30:46;;;;;;;14.73;8.25;;;15.30;66.50;;;;;;5110582;27;36783;-61
2022/04/19 06:33:13;;;;;;;15.52;7.53;;;15.30;65.70;;;;;;5111356;27;38752;-61
2022/04/19 06:35:41;;;;;;;11.95;6.80;;;15.30;64.70;;;;;;5109472;27;38160;-60
2022/04/19 06:38:09;;;;;;;12.43;7.35;;;15.40;64.70;;;;;;5110235;27;37453;-60
2022/04/19 06:40:36;;;;;;;13.23;7.03;;;15.40;65.00;;;;;;5109454;27;37024;-60
2022/04/19 06:43:04;;;;;;;14.93;6.38;;;15.40;64.50;;;;;;5110282;27;37623;-61
2022/04/19 06:45:33;;;;;;;9.60;5.93;;;15.40;64.00;;;;;;5108963;27;37407;-61
2022/04/19 06:48:01;;;;;;;11.52;6.47;;;15.40;62.50;;;;;;5109780;27;37344;-55
2022/04/19 06:50:29;;;;;;;11.88;5.85;;;15.30;62.30;;;;;;5109609;27;35409;-54
2022/04/19 06:52:57;;;;;;;12.52;6.85;;;15.30;62.70;;;;;;5107356;27;40541;-54
2022/04/19 06:55:24;;;;;;;14.40;7.15;;;15.40;62.20;;;;;;5108312;27;38205;-60
2022/04/19 06:57:52;;;;;;;11.75;6.00;;;15.40;62.20;;;;;;5109754;27;36131;-61
2022/04/19 07:00:20;;;;;;;10.82;5.32;;;15.40;61.80;;;;;;5108541;27;37932;-60
2022/04/19 07:02:51;;;;;;;11.85;5.78;;;15.40;62.40;;;;;;5109451;27;38215;-60
2022/04/19 07:05:19;;;;;;;10.57;5.68;;;15.40;62.40;;;;;;5108007;27;39393;-61
2022/04/19 07:07:46;;;;;;;9.15;5.40;;;15.50;62.40;;;;;;5106464;27;36462;-61
2022/04/19 07:10:15;;;;;;;11.45;5.20;;;15.50;62.00;;;;;;5109643;27;37542;-61
2022/04/19 07:12:44;;;;;;;10.07;5.60;;;15.50;62.20;;;;;;5109362;27;36379;-60
2022/04/19 07:15:12;;;;;;;10.23;5.68;;;15.50;61.90;;;;;;5108922;27;38634;-60
2022/04/19 07:17:43;;;;;;;8.35;5.13;;;15.40;61.60;;;;;;5109413;27;38783;-53
2022/04/19 07:28:36;;;;;;;10.75;5.55;;;15.60;61.30;;;;;;5111491;27;39083;-60
2022/04/19 07:31:04;;;;;;;12.02;6.47;;;15.70;60.70;;;;;;5110943;27;37143;-61
2022/04/19 07:33:31;;;;;;;11.52;5.90;;;15.70;60.90;;;;;;5111431;27;40389;-54
2022/04/19 07:36:00;;;;;;;11.23;5.15;;;15.90;61.50;;;;;;5111477;27;37720;-60
2022/04/19 07:38:27;;;;;;;10.02;5.18;;;16.00;62.00;;;;;;5110152;27;39488;-61
2022/04/19 07:40:55;;;;;;;24.00;6.53;;;16.20;60.50;;;;;;5112930;27;36331;-61
2022/04/19 07:43:22;;;;;;;10.23;5.50;;;16.40;60.40;;;;;;5109529;27;38921;-61
2022/04/19 07:45:49;;;;;;;11.07;5.57;;;16.50;59.60;;;;;;5111862;27;38716;-62
2022/04/19 07:48:18;;;;;;;9.73;4.90;;;16.60;58.30;;;;;;5113148;27;37366;-61
2022/04/19 07:50:46;;;;;;;9.90;4.82;;;16.70;56.50;;;;;;5113551;27;35483;-61
2022/04/19 07:53:17;;;;;;;8.20;4.32;;;17.00;55.80;;;;;;5113458;27;37724;-61
2022/04/19 07:55:45;;;;;;;11.07;4.70;;;17.40;55.30;;;;;;5113310;27;39386;-55
2022/04/19 07:58:12;;;;;;;10.10;4.88;;;17.80;53.90;;;;;;5111186;27;37780;-55
2022/04/19 08:00:40;;;;;;;10.35;4.68;;;18.00;53.60;;;;;;5114231;27;35594;-55
2022/04/19 08:03:08;;;;;;;8.55;4.72;;;18.00;53.80;;;;;;5110967;27;39692;-54
2022/04/19 08:05:35;;;;;;;9.02;4.63;;;17.80;53.10;;;;;;5113422;27;37442;-55
2022/04/19 08:08:02;;;;;;;8.40;4.38;;;17.60;53.60;;;;;;5109788;27;36405;-55
2022/04/19 08:10:31;;;;;;;7.22;3.97;;;17.50;53.20;;;;;;5110310;27;35722;-55
2022/04/19 08:12:59;;;;;;;8.40;4.25;;;17.50;53.40;;;;;;5112851;27;37100;-55
2022/04/19 08:15:26;;;;;;;7.53;3.38;;;17.50;52.90;;;;;;5112257;27;37385;-55
2022/04/19 08:17:54;;;;;;;9.07;4.10;;;17.60;52.30;;;;;;5111112;27;36366;-55
2022/04/19 08:20:22;;;;;;;8.13;3.08;;;17.70;52.10;;;;;;5113744;27;36411;-55
2022/04/19 08:22:49;;;;;;;11.63;3.92;;;17.70;52.00;;;;;;5113805;27;37749;-55
2022/04/19 08:25:17;;;;;;;6.18;2.67;;;17.70;52.00;;;;;;5110236;27;39122;-55
2022/04/19 08:27:46;;;;;;;7.55;2.90;;;17.70;50.00;;;;;;5112195;27;36123;-53
2022/04/19 08:30:15;;;;;;;6.20;2.97;;;17.70;48.70;;;;;;5114326;27;38018;-54
2022/04/19 08:32:44;;;;;;;5.50;2.58;;;17.60;47.80;;;;;;5109695;27;38048;-60
2022/04/19 08:35:11;;;;;;;7.03;3.13;;;17.60;47.30;;;;;;5110871;27;37091;-61
2022/04/19 08:37:39;;;;;;;5.63;2.80;;;17.60;48.00;;;;;;5111249;27;35608;-54
2022/04/19 08:40:08;;;;;;;5.13;2.70;;;17.70;47.60;;;;;;5112794;27;39108;-54
2022/04/19 08:42:38;;;;;;;6.47;2.22;;;17.80;47.40;;;;;;5111375;27;36240;-55
2022/04/19 08:45:08;;;;;;;5.07;2.60;;;17.90;46.20;;;;;;5111503;27;37892;-55
2022/04/19 08:47:39;;;;;;;4.95;2.30;;;18.00;44.40;;;;;;5112237;27;36217;-53
2022/04/19 08:50:10;;;;;;;6.50;2.45;;;18.00;43.80;;;;;;5112434;27;35961;-53
2022/04/19 08:52:37;;;;;;;6.82;2.30;;;18.10;44.30;;;;;;5112822;27;37374;-54
2022/04/19 08:57:53;;;;;;;4.20;1.92;;;18.30;43.50;;;;;;5112863;27;39519;-53
2022/04/19 09:00:24;;;;;;;8.20;2.20;;;18.40;43.40;;;;;;5112084;27;37564;-54
2022/04/19 09:02:52;;;;;;;3.47;1.70;;;18.50;41.80;;;;;;5110655;27;36347;-54
2022/04/19 09:05:21;;;;;;;3.75;1.50;;;18.60;42.60;;;;;;5113651;27;36667;-60
2022/04/19 09:07:50;;;;;;;4.82;1.65;;;18.60;41.50;;;;;;5109540;27;37170;-60
2022/04/19 09:10:28;;;;;;;4.68;1.38;;;18.70;41.70;;;;;;5114580;27;38111;-54
2022/04/19 09:12:57;;;;;;;3.28;1.30;;;18.70;40.80;;;;;;5113273;27;37714;-53
2022/04/19 09:15:32;;;;;;;2.60;1.02;;;18.70;41.10;;;;;;5113399;27;40212;-52
2022/04/19 09:18:00;;;;;;;5.45;1.30;;;18.90;41.60;;;;;;5110512;27;37311;-54
2022/04/19 09:20:27;;;;;;;2.58;0.75;;;18.90;41.10;;;;;;5111407;27;36287;-60
2022/04/19 09:23:06;;;;;;;2.38;1.10;;;18.80;41.40;;;;;;5112476;27;37463;-62
2022/04/19 09:25:36;;;;;;;5.00;1.17;;;18.90;40.20;;;;;;5111267;27;38048;-62
2022/04/19 09:28:16;;;;;;;2.78;1.10;;;18.70;40.60;;;;;;5109311;27;36010;-61
2022/04/19 09:30:45;;;;;;;3.10;1.30;;;18.60;40.70;;;;;;5112511;27;36667;-61
2022/04/19 09:33:14;;;;;;;4.50;1.23;;;18.60;41.00;;;;;;5110474;27;37893;-61
2022/04/19 09:35:44;;;;;;;4.45;1.80;;;18.60;41.90;;;;;;5110910;27;36804;-55
2022/04/19 09:38:13;;;;;;;3.83;1.77;;;18.60;41.80;;;;;;5109140;27;37855;-52
2022/04/19 09:40:42;;;;;;;5.53;1.55;;;18.60;41.70;;;;;;5111139;27;36733;-55
2022/04/19 09:43:14;;;;;;;5.95;1.83;;;18.70;42.30;;;;;;5108495;27;36733;-54
2022/04/19 09:45:58;;;;;;;3.78;1.70;;;18.70;41.60;;;;;;5109881;27;37841;-55
2022/04/19 09:48:27;;;;;;;4.93;1.80;;;18.90;42.70;;;;;;5107783;27;36349;-54
2022/04/19 09:50:58;;;;;;;3.78;1.88;;;18.90;42.50;;;;;;5110438;27;36704;-54
2022/04/19 09:53:28;;;;;;;6.97;2.08;;;19.10;43.10;;;;;;5110391;27;38265;-52
2022/04/19 09:55:58;;;;;;;4.90;2.28;;;19.10;42.50;;;;;;5112827;27;37211;-52
2022/04/19 09:58:29;;;;;;;3.75;1.73;;;19.20;43.50;;;;;;5110774;27;36111;-53
2022/04/19 10:00:58;;;;;;;4.28;1.88;;;19.30;41.80;;;;;;5112584;27;35371;-60
2022/04/19 10:08:55;;;;;;;5.90;2.20;;;19.10;42.40;;;;;;5097504;27;37805;-53
2022/04/19 10:11:22;;;;;;;4.15;1.65;;;19.20;41.70;;;;;;5109995;27;20052;-53
2022/04/19 10:13:51;;;;;;;8.00;2.03;;;19.10;42.10;;;;;;5114541;27;37379;-59
2022/04/19 10:16:21;;;;;;;3.35;1.60;;;19.10;42.00;;;;;;5111135;27;38643;-60
2022/04/19 10:18:48;;;;;;;4.75;2.17;;;19.10;42.00;;;;;;5113487;27;38333;-54
2022/04/19 10:21:21;;;;;;;3.95;2.20;;;19.10;42.40;;;;;;5113649;27;37184;-51
2022/04/19 10:23:48;;;;;;;4.47;2.13;;;19.00;42.20;;;;;;5112762;27;38335;-58
2022/04/19 10:26:20;;;;;;;4.50;2.17;;;19.00;42.60;;;;;;5112036;27;37706;-59
2022/04/19 10:28:49;;;;;;;4.28;1.73;;;19.10;42.90;;;;;;5111516;27;37291;-52
2022/04/19 10:31:28;;;;;;;5.05;1.73;;;19.10;42.10;;;;;;5111453;27;37741;-52
2022/04/19 10:33:55;;;;;;;4.70;1.77;;;19.10;42.20;;;;;;5112404;27;37086;-59
2022/04/19 10:36:35;;;;;;;3.75;1.83;;;19.00;42.50;;;;;;5112112;27;38122;-60
2022/04/19 10:39:32;;;;;;;5.25;2.15;;;19.00;42.20;;;;;;5113691;27;36331;-59
2022/04/19 10:42:02;;;;;;;6.15;2.20;;;19.10;43.80;;;;;;5112204;27;36766;-60
2022/04/19 10:44:36;;;;;;;6.05;2.20;;;19.10;44.00;;;;;;5113405;27;39326;-53
2022/04/19 10:47:16;;;;;;;;;;;19.10;43.20;;;;;;5113196;27;36288;-54
2022/04/19 10:49:50;;;;;;;;;;;19.10;43.40;;;;;;5110068;27;37967;-53
2022/04/19 10:52:45;;;;;;;;;;;19.00;42.60;;;;;;5110174;27;36928;-52
2022/04/19 10:55:14;;;;;;;;;;;18.90;43.10;;;;;;5113758;27;38762;-53
2022/04/19 11:00:27;;;;;;;;;;;18.70;43.40;;;;;;5111953;27;37704;-60
2022/04/19 11:03:00;;;;;;;;;;;18.70;44.40;;;;;;5107382;27;36360;-56
2022/04/19 11:05:38;;;;;;;;;;;18.50;43.30;;;;;;5114561;27;37132;-56
2022/04/19 11:08:31;;;;;;;;;;;18.50;43.50;;;;;;5112328;27;38478;-55
2022/04/19 11:11:20;;;;;;;;;;;18.50;43.70;;;;;;5108878;27;37149;-55
2022/04/19 11:14:16;;;;;;;;;;;18.50;42.70;;;;;;5111647;27;35870;-55
2022/04/19 11:16:43;;;;;;;;;;;18.50;41.90;;;;;;5110590;27;36152;-54
2022/04/19 11:19:16;;;;;;;;;;;18.50;44.40;;;;;;5110974;27;37137;-55
2022/04/19 11:21:47;;;;;;;;;;;18.50;44.10;;;;;;5110704;27;37407;-55
2022/04/19 11:24:35;;;;;;;;;;;18.50;45.00;;;;;;5109994;27;35240;-53
2022/04/19 11:27:02;;;;;;;;;;;18.60;45.70;;;;;;5109582;27;39954;-54
2022/04/19 11:29:46;;;;;;;;;;;18.70;46.50;;;;;;5112399;27;36658;-56
2022/04/19 11:32:13;;;;;;;;;;;18.70;46.50;;;;;;5115363;27;37632;-54
2022/04/19 11:34:56;;;;;;;;;;;18.90;44.70;;;;;;5112952;27;36149;-55
2022/04/19 11:37:24;;;;;;;;;;;18.90;44.00;;;;;;5113001;27;37624;-63
2022/04/19 11:48:07;;;;;;;;;;;18.70;44.70;;;;;;5110634;27;39889;-54
2022/04/19 11:50:38;;;;;;;;;;;18.50;44.60;;;;;;5110655;27;38037;-54
2022/04/19 11:53:05;;;;;;;;;;;18.40;45.50;;;;;;5111518;27;38120;-53
2022/04/19 11:55:32;;;;;;;;;;;18.30;45.70;;;;;;5110993;27;37637;-53
2022/04/19 11:58:03;;;;;;;;;;;18.30;44.20;;;;;;5113458;27;39159;-54
2022/04/19 12:00:31;;;;;;;;;;;18.20;45.70;;;;;;5111898;27;36696;-53
2022/04/19 12:02:58;;;;;;;;;;;18.20;45.50;;;;;;5112367;27;38662;-54
2022/04/19 12:05:27;;;;;;;;;;;18.20;46.20;;;;;;5112705;27;37118;-55
2022/04/19 12:07:56;;;;;;;;;;;18.10;45.70;;;;;;5112011;27;37743;-54
2022/04/19 12:10:24;;;;;;;;;;;18.00;45.70;;;;;;5110347;27;38998;-54
2022/04/19 12:12:52;;;;;;;;;;;18.00;45.70;;;;;;5111885;27;37090;-54
2022/04/19 12:15:37;;;;;;;;;;;18.00;45.40;;;;;;5110884;27;36437;-55
2022/04/19 12:18:05;;;;;;;;;;;17.90;45.90;;;;;;5110690;27;36574;-54
2022/04/19 12:20:41;;;;;;;;;;;17.90;45.80;;;;;;5100384;27;37861;-54
2022/04/19 12:23:18;;;;;;;;;;;17.90;46.10;;;;;;5110068;27;37544;-60
2022/04/19 12:25:57;;;;;;;;;;;17.90;46.40;;;;;;5112643;27;39508;-60
2022/04/19 12:28:33;;;;;;;;;;;17.90;46.20;;;;;;5112089;27;37725;-60
2022/04/19 12:31:00;;;;;;;;;;;18.00;47.10;;;;;;5112250;27;36494;-61
2022/04/19 12:33:28;;;;;;;;;;;17.90;46.60;;;;;;5111287;27;37585;-61
2022/04/19 12:35:55;;;;;;;;;;;17.80;46.60;;;;;;5113299;27;36526;-61
2022/04/19 12:38:30;;;;;;;;;;;17.70;46.40;;;;;;5112329;27;37948;-59
2022/04/19 12:40:57;;;;;;;;;;;17.60;48.30;;;;;;5112657;27;39612;-60
2022/04/19 12:43:39;;;;;;;;;;;17.60;47.40;;;;;;5112483;27;37296;-59
2022/04/19 12:46:06;;;;;;;;;;;17.50;46.70;;;;;;5112543;27;37103;-60
2022/04/19 12:48:34;;;;;;;;;;;17.40;47.70;;;;;;5111194;27;37617;-60
2022/04/19 12:51:02;;;;;;;;;;;17.50;48.50;;;;;;5111477;27;35639;-61
2022/04/19 12:53:32;;;;;;;;;;;17.60;48.20;;;;;;5113033;27;34943;-60
2022/04/19 12:56:11;;;;;;;;;;;17.60;50.20;;;;;;5112857;27;36365;-55
2022/04/19 12:58:45;;;;;;;;;;;17.60;49.00;;;;;;5113864;27;36474;-61
2022/04/19 13:01:12;;;;;;;;;;;17.40;48.10;;;;;;5114072;27;38271;-61
2022/04/19 13:03:39;;;;;;;;;;;17.40;48.90;;;;;;5112752;27;37189;-61
2022/04/19 13:14:21;;;;;;;;;;;17.30;49.60;;;;;;5111140;27;39527;-60
2022/04/19 13:16:49;;;;;;;;;;;17.30;50.40;;;;;;5110602;27;36376;-60
2022/04/19 13:19:16;;;;;;;;;;;17.30;49.20;;;;;;5111228;27;40122;-59
2022/04/19 13:21:43;;;;;;;;;;;17.30;49.70;;;;;;5112308;27;36621;-53
2022/04/19 13:24:12;;;;;;;;;;;17.30;49.50;;;;;;5111259;27;37092;-54
2022/04/19 13:26:39;;;;;;;;;;;17.30;49.40;;;;;;5112627;27;37436;-55
2022/04/19 13:29:06;;;;;;;;;;;17.30;51.30;;;;;;5111147;27;38440;-54
2022/04/19 13:31:34;;;;;;;;;;;17.20;49.40;;;;;;5113586;27;37492;-54
2022/04/19 13:34:02;;;;;;;;;;;17.20;48.90;;;;;;5111569;27;37289;-54
2022/04/19 13:36:29;;;;;;;;;;;17.20;48.10;;;;;;5113190;27;37092;-53
2022/04/19 13:38:59;;;;;;;;;;;17.10;49.60;;;;;;5113875;27;37965;-55
2022/04/19 13:41:27;;;;;;;;;;;17.20;47.40;;;;;;5113525;27;37627;-54
2022/04/19 13:43:55;;;;;;;;;;;17.20;49.30;;;;;;5113442;27;37264;-53
2022/04/19 13:46:22;;;;;;;;;;;17.10;48.00;;;;;;5112116;27;38069;-55
2022/04/19 13:48:52;;;;;;;;;;;17.10;49.20;;;;;;5113273;27;37410;-55
2022/04/19 13:51:22;;;;;;;;;;;17.10;48.60;;;;;;5113254;27;36830;-55
2022/04/19 13:53:49;;;;;;;;;;;17.10;48.20;;;;;;5111761;27;37336;-54
2022/04/19 13:56:16;;;;;;;;;;;17.00;49.30;;;;;;5111903;27;35241;-55
2022/04/19 13:58:46;;;;;;;;;;;17.10;49.10;;;;;;5109439;27;36981;-55
2022/04/19 14:01:13;;;;;;;;;;;17.10;51.70;;;;;;5110684;27;39149;-53
2022/04/19 14:03:40;;;;;;;;;;;17.10;49.60;;;;;;5110209;27;37508;-52
2022/04/19 14:06:07;;;;;;;;;;;17.10;50.30;;;;;;5111259;27;37884;-52